Time;durP1;ratioP1;P1;durP2;ratioP2;P2;SDS_P1;SDS_P2;PMS_P1;PMS_P2;Temp;Humidity;BMP_temperature;BMP_pressure;BME280_temperature;BME280_humidity;BME280_pressure;Samples;Min_cycle;Max_cycle;Signal;HPM_P1;HPM_P2
2021/10/18 00:01:34;;;;;;;39.08;16.70;;;;;;;6.91;82.56;96855.41;5111072;28;20096;-72
2021/10/18 00:04:00;;;;;;;30.52;17.52;;;;;;;6.94;83.00;96849.44;5110189;28;20040;-72
2021/10/18 00:06:27;;;;;;;24.25;16.83;;;;;;;7.01;83.45;96853.44;5110101;28;20031;-71
2021/10/18 00:08:53;;;;;;;28.05;18.35;;;;;;;6.98;83.08;96850.50;5110257;28;20039;-72
2021/10/18 00:11:20;;;;;;;26.10;16.50;;;;;;;6.89;82.83;96853.00;5111828;27;20055;-72
2021/10/18 00:13:47;;;;;;;31.73;16.95;;;;;;;6.88;82.55;96853.28;5110295;28;20066;-71
2021/10/18 00:16:15;;;;;;;28.85;17.35;;;;;;;6.84;82.81;96849.50;5109317;28;20051;-72
2021/10/18 00:18:41;;;;;;;28.27;16.42;;;;;;;6.78;82.01;96864.97;5110489;27;20054;-71
2021/10/18 00:21:08;;;;;;;22.42;15.85;;;;;;;6.74;82.22;96861.22;5108928;28;20044;-71
2021/10/18 00:23:34;;;;;;;52.83;15.73;;;;;;;6.74;82.15;96858.53;5110734;28;20055;-71
2021/10/18 00:26:01;;;;;;;27.63;15.85;;;;;;;6.74;81.90;96855.81;5109418;28;20039;-72
2021/10/18 00:28:27;;;;;;;27.45;17.40;;;;;;;6.78;82.08;96863.06;5109926;27;20049;-71
2021/10/18 00:30:54;;;;;;;24.35;15.98;;;;;;;6.79;81.92;96863.91;5109259;28;20043;-71
2021/10/18 00:33:22;;;;;;;27.85;15.90;;;;;;;6.74;82.08;96861.22;5109214;28;20059;-71
2021/10/18 00:35:48;;;;;;;27.60;15.70;;;;;;;6.71;82.01;96861.78;5109821;28;20054;-71
2021/10/18 00:38:15;;;;;;;23.65;15.93;;;;;;;6.61;82.49;96867.25;5109013;28;20043;-73
2021/10/18 00:40:42;;;;;;;30.63;16.63;;;;;;;6.54;82.58;96868.38;5111342;27;20051;-71
2021/10/18 00:43:08;;;;;;;25.58;17.35;;;;;;;6.49;83.17;96864.88;5108261;28;20043;-73
2021/10/18 00:45:35;;;;;;;24.35;16.63;;;;;;;6.49;83.04;96863.00;5109937;28;20040;-71
2021/10/18 00:48:02;;;;;;;24.33;16.83;;;;;;;6.50;83.73;96867.31;5108474;28;20039;-71
2021/10/18 00:50:30;;;;;;;27.92;16.58;;;;;;;6.45;83.20;96866.53;5109867;27;20051;-71
2021/10/18 00:52:58;;;;;;;31.92;17.25;;;;;;;6.47;83.56;96857.06;5107013;28;20522;-71
2021/10/18 00:55:24;;;;;;;33.10;17.63;;;;;;;6.41;83.83;96855.44;5106906;28;20422;-73
2021/10/18 00:57:52;;;;;;;26.55;17.15;;;;;;;6.44;83.89;96859.50;5108732;28;20035;-71
2021/10/18 01:00:19;;;;;;;23.63;16.05;;;;;;;6.42;83.89;96858.97;5108548;28;20054;-71
2021/10/18 01:02:46;;;;;;;23.70;15.88;;;;;;;6.35;84.58;96853.88;5109258;28;20032;-71
2021/10/18 01:05:14;;;;;;;25.45;16.55;;;;;;;6.32;85.06;96865.25;5108156;28;20062;-71
2021/10/18 01:07:42;;;;;;;26.23;17.17;;;;;;;6.28;85.03;96853.38;5109411;28;20502;-72
2021/10/18 01:10:09;;;;;;;26.95;17.65;;;;;;;6.29;85.28;96860.38;5107830;28;20043;-71
2021/10/18 01:12:36;;;;;;;35.72;19.15;;;;;;;6.25;86.04;96854.72;5109115;28;20058;-71
2021/10/18 01:15:03;;;;;;;34.60;18.23;;;;;;;6.25;86.04;96856.63;5107566;28;20039;-71
2021/10/18 01:17:29;;;;;;;39.83;18.73;;;;;;;6.26;86.36;96855.53;5108947;28;20062;-71
2021/10/18 01:19:56;;;;;;;39.25;19.45;;;;;;;6.30;86.76;96853.88;5108371;27;20057;-72
2021/10/18 01:22:23;;;;;;;37.65;20.55;;;;;;;6.32;87.13;96857.16;5108153;28;20043;-72
2021/10/18 01:24:50;;;;;;;34.97;20.08;;;;;;;6.40;87.14;96853.03;5112833;27;20062;-71
2021/10/18 01:27:16;;;;;;;41.42;21.25;;;;;;;6.44;87.06;96862.22;5107688;28;20051;-71
2021/10/18 01:29:43;;;;;;;59.13;20.42;;;;;;;6.49;87.24;96854.06;5108743;28;20051;-71
2021/10/18 01:32:10;;;;;;;52.78;20.63;;;;;;;6.53;87.41;96855.94;5107048;28;20126;-72
2021/10/18 01:34:36;;;;;;;50.50;19.00;;;;;;;6.56;87.15;96853.75;5108957;27;20039;-72
2021/10/18 01:37:05;;;;;;;40.92;20.17;;;;;;;6.60;87.10;96847.50;5107542;28;20044;-73
2021/10/18 01:39:33;;;;;;;65.03;21.40;;;;;;;6.65;87.26;96849.38;5108887;28;20433;-71
2021/10/18 01:41:59;;;;;;;70.40;21.45;;;;;;;6.68;87.09;96846.09;5107887;28;20444;-71
2021/10/18 01:44:26;;;;;;;76.18;22.75;;;;;;;6.73;86.73;96848.75;5107936;28;20048;-71
2021/10/18 01:46:52;;;;;;;54.05;21.77;;;;;;;6.76;86.72;96859.03;5108155;28;20051;-72
2021/10/18 01:49:19;;;;;;;64.45;21.23;;;;;;;6.72;86.51;96857.97;5107616;28;20039;-72
2021/10/18 01:51:45;;;;;;;42.33;21.15;;;;;;;6.76;86.76;96859.03;5108758;28;20421;-71
2021/10/18 01:54:12;;;;;;;53.78;20.55;;;;;;;6.82;87.03;96862.50;5111353;27;20036;-71
2021/10/18 01:56:39;;;;;;;80.80;20.98;;;;;;;6.84;87.04;96861.16;5108694;27;20044;-71
2021/10/18 01:59:06;;;;;;;46.25;20.90;;;;;;;6.84;86.99;96871.16;5107716;27;20066;-71
2021/10/18 02:01:33;;;;;;;69.63;21.90;;;;;;;6.82;86.85;96870.63;5108842;28;20047;-72
2021/10/18 02:03:59;;;;;;;93.05;21.25;;;;;;;6.83;86.98;96864.13;5107708;27;20725;-72
2021/10/18 02:06:25;;;;;;;71.57;21.35;;;;;;;6.83;86.89;96875.75;5108164;27;20044;-72
2021/10/18 02:08:52;;;;;;;56.72;21.02;;;;;;;6.85;87.03;96879.03;5107691;27;20039;-72
2021/10/18 02:11:18;;;;;;;75.35;20.45;;;;;;;6.86;86.81;96867.09;5107787;27;20055;-71
2021/10/18 02:13:46;;;;;;;45.40;18.95;;;;;;;6.81;86.80;96864.41;5108015;27;20050;-71
2021/10/18 02:16:13;;;;;;;67.20;21.30;;;;;;;6.83;87.39;96870.34;5108243;27;20524;-71
2021/10/18 02:18:39;;;;;;;41.45;20.70;;;;;;;6.85;87.30;96868.19;5108500;27;20061;-71
2021/10/18 02:21:05;;;;;;;52.45;19.77;;;;;;;6.86;87.25;96869.81;5107284;27;20039;-71
2021/10/18 02:23:33;;;;;;;63.60;20.83;;;;;;;6.83;87.43;96866.84;5112865;27;20390;-71
2021/10/18 02:25:59;;;;;;;70.32;21.23;;;;;;;6.84;87.58;96872.00;5107623;28;20489;-72
2021/10/18 02:28:26;;;;;;;54.55;20.58;;;;;;;6.82;87.43;96868.75;5107472;28;20388;-71
2021/10/18 02:30:54;;;;;;;44.63;19.00;;;;;;;6.78;87.21;96873.91;5107638;28;20044;-72
2021/10/18 02:33:20;;;;;;;48.08;20.80;;;;;;;6.85;87.78;96867.38;5107311;28;20048;-71
2021/10/18 02:35:47;;;;;;;47.75;20.75;;;;;;;6.85;88.01;96868.19;5108044;28;20047;-72
2021/10/18 02:38:13;;;;;;;47.13;20.98;;;;;;;6.90;87.77;96875.47;5107356;28;20044;-72
2021/10/18 02:40:40;;;;;;;50.83;20.58;;;;;;;6.85;87.43;96868.19;5108276;28;20407;-71
2021/10/18 02:43:06;;;;;;;50.40;20.45;;;;;;;6.86;87.69;96869.81;5106957;28;20055;-71
2021/10/18 02:45:33;;;;;;;47.08;20.45;;;;;;;6.89;87.66;96869.25;5108435;28;20047;-71
2021/10/18 02:48:01;;;;;;;37.03;20.02;;;;;;;6.85;87.42;96867.38;5107430;28;20040;-72
2021/10/18 02:50:27;;;;;;;61.90;19.73;;;;;;;6.86;87.78;96869.00;5108334;28;20063;-72
2021/10/18 02:52:54;;;;;;;36.17;20.17;;;;;;;6.86;87.93;96866.28;5107848;28;20062;-72
2021/10/18 02:55:20;;;;;;;64.30;20.30;;;;;;;6.79;87.56;96870.13;5111396;27;20048;-71
2021/10/18 02:57:47;;;;;;;43.03;20.02;;;;;;;6.80;87.41;96863.63;5107320;28;20044;-72
2021/10/18 03:00:14;;;;;;;39.65;19.95;;;;;;;6.83;87.53;96864.94;5107093;27;20058;-71
2021/10/18 03:02:41;;;;;;;59.65;20.33;;;;;;;6.88;87.91;96866.81;5107577;27;20052;-73
2021/10/18 03:05:09;;;;;;;48.22;19.85;;;;;;;6.87;87.74;96868.72;5108482;27;20055;-72
2021/10/18 03:07:36;;;;;;;48.85;20.88;;;;;;;6.88;87.58;96869.50;5111485;27;20039;-72
2021/10/18 03:10:03;;;;;;;40.92;20.60;;;;;;;6.83;87.94;96881.19;5110106;27;20051;-71
2021/10/18 03:12:29;;;;;;;53.65;20.23;;;;;;;6.88;88.18;96867.59;5111990;27;20052;-72
2021/10/18 03:14:56;;;;;;;46.88;20.13;;;;;;;6.86;88.15;96864.38;5111332;27;20050;-72
2021/10/18 03:17:22;;;;;;;50.45;19.90;;;;;;;6.85;87.76;96873.59;5110930;27;20051;-71
2021/10/18 03:19:49;;;;;;;51.42;21.38;;;;;;;6.89;88.29;96880.06;5110875;27;20059;-71
2021/10/18 03:22:17;;;;;;;38.97;20.35;;;;;;;6.89;88.09;96880.06;5110605;27;20048;-71
2021/10/18 03:24:43;;;;;;;63.65;20.48;;;;;;;6.90;88.36;96881.69;5115660;27;20047;-71
2021/10/18 03:27:10;;;;;;;44.75;20.83;;;;;;;6.95;88.47;96884.38;5110208;27;20052;-72
2021/10/18 03:29:36;;;;;;;46.08;18.88;;;;;;;7.00;88.45;96881.63;5111167;27;20055;-72
2021/10/18 03:32:03;;;;;;;70.95;21.40;;;;;;;7.03;88.11;96881.03;5109796;28;20055;-71
2021/10/18 03:34:29;;;;;;;57.35;21.50;;;;;;;7.06;87.95;96890.50;5111584;28;20066;-71
2021/10/18 03:36:55;;;;;;;73.60;22.08;;;;;;;7.05;87.92;96888.91;5109833;28;20055;-71
2021/10/18 03:39:23;;;;;;;50.72;21.02;;;;;;;7.07;87.95;96892.94;5111118;28;20051;-71
2021/10/18 03:41:50;;;;;;;54.85;21.40;;;;;;;7.10;87.90;96891.56;5109906;27;20040;-72
2021/10/18 03:44:16;;;;;;;46.15;20.80;;;;;;;7.18;88.11;96892.84;5110779;28;20043;-71
2021/10/18 03:46:43;;;;;;;52.47;20.70;;;;;;;7.20;87.67;96905.00;5110633;28;20494;-72
2021/10/18 03:49:09;;;;;;;48.70;20.35;;;;;;;7.16;87.44;96900.47;5109981;28;20200;-71
2021/10/18 03:51:36;;;;;;;71.30;20.25;;;;;;;7.17;87.91;96904.78;5110721;28;20062;-72
2021/10/18 03:54:02;;;;;;;44.00;18.88;;;;;;;7.14;87.63;96908.03;5114152;27;20059;-71
2021/10/18 03:56:30;;;;;;;39.03;18.48;;;;;;;7.09;88.21;96916.22;5110528;27;20349;-71
2021/10/18 03:58:56;;;;;;;49.95;18.65;;;;;;;7.01;88.28;96910.31;5110031;27;20055;-71
2021/10/18 04:01:23;;;;;;;49.63;20.10;;;;;;;7.00;88.57;96919.53;5110449;27;20043;-71
2021/10/18 04:03:49;;;;;;;40.25;18.58;;;;;;;6.97;88.65;96928.19;5110137;27;20048;-71
2021/10/18 04:06:16;;;;;;;39.33;18.55;;;;;;;7.00;88.69;96933.06;5110055;27;20452;-71
2021/10/18 04:08:43;;;;;;;44.30;20.90;;;;;;;7.03;88.48;96934.38;5109874;27;20414;-73
2021/10/18 04:11:09;;;;;;;52.78;20.30;;;;;;;7.03;88.86;96940.59;5109683;27;20088;-71
2021/10/18 04:13:37;;;;;;;51.78;20.80;;;;;;;7.05;88.71;96943.88;5110250;27;20608;-71
2021/10/18 04:16:04;;;;;;;42.08;19.85;;;;;;;7.12;88.75;96943.53;5108723;27;20517;-72
2021/10/18 04:18:30;;;;;;;59.38;20.58;;;;;;;7.11;88.58;96947.34;5110228;27;20047;-71
2021/10/18 04:20:59;;;;;;;52.05;19.58;;;;;;;7.11;88.37;96947.34;5109464;27;20043;-72
2021/10/18 04:23:26;;;;;;;44.67;19.95;;;;;;;7.14;88.43;96957.59;5114722;27;20050;-71
2021/10/18 04:25:52;;;;;;;40.08;19.98;;;;;;;7.23;88.66;96955.13;5108944;27;20044;-71
2021/10/18 04:28:19;;;;;;;55.28;22.88;;;;;;;7.24;88.57;96951.31;5109888;27;20048;-72
2021/10/18 04:30:47;;;;;;;45.65;20.92;;;;;;;7.24;88.14;96951.31;5109809;27;20441;-71
2021/10/18 04:33:13;;;;;;;42.35;21.48;;;;;;;7.29;88.57;96953.97;5109257;27;20410;-72
2021/10/18 04:35:40;;;;;;;49.00;20.13;;;;;;;7.33;87.41;96963.19;5109710;27;20062;-72
2021/10/18 04:38:06;;;;;;;58.05;23.73;;;;;;;7.27;87.44;96972.44;5109376;27;20043;-71
2021/10/18 04:40:33;;;;;;;44.67;19.98;;;;;;;7.29;87.69;96968.34;5110334;28;20066;-71
2021/10/18 04:43:00;;;;;;;52.20;20.92;;;;;;;7.30;87.76;96969.13;5109572;27;20048;-72
2021/10/18 04:45:26;;;;;;;71.40;20.83;;;;;;;7.36;87.45;96965.34;5109940;27;20039;-71
2021/10/18 04:47:54;;;;;;;53.78;21.48;;;;;;;7.37;87.63;96972.38;5108875;27;20055;-72
2021/10/18 04:50:23;;;;;;;58.33;19.25;;;;;;;7.38;87.32;96973.97;5109434;27;20047;-71
2021/10/18 04:52:50;;;;;;;37.72;19.50;;;;;;;7.40;86.71;96976.41;5108869;27;20482;-71
2021/10/18 04:55:17;;;;;;;37.95;19.52;;;;;;;7.41;85.98;96972.59;5103603;28;20047;-71
2021/10/18 04:57:55;;;;;;;37.75;18.75;;;;;;;7.42;85.94;96985.88;5109079;28;20035;-71
2021/10/18 05:00:23;;;;;;;35.75;17.90;;;;;;;7.40;86.19;96988.03;5109257;28;20058;-72
2021/10/18 05:02:50;;;;;;;37.58;19.30;;;;;;;7.37;86.34;96987.81;5109772;28;20047;-72
2021/10/18 05:05:18;;;;;;;40.45;18.98;;;;;;;7.31;86.53;96992.47;5108399;27;20039;-73
2021/10/18 05:07:44;;;;;;;49.38;21.27;;;;;;;7.32;86.53;96991.34;5109708;28;20055;-72
2021/10/18 05:10:11;;;;;;;36.70;19.10;;;;;;;7.31;86.46;97000.59;5108273;28;20043;-71
2021/10/18 05:12:38;;;;;;;35.42;18.55;;;;;;;7.30;86.41;96994.34;5109520;28;20499;-71
2021/10/18 05:15:06;;;;;;;56.47;20.60;;;;;;;7.30;86.74;96993.53;5108065;28;20040;-72
2021/10/18 05:17:33;;;;;;;59.35;21.83;;;;;;;7.32;86.77;97002.19;5108824;28;20043;-76
2021/10/18 05:19:59;;;;;;;40.47;19.77;;;;;;;7.38;86.60;96992.94;5108369;28;20059;-74
2021/10/18 05:22:27;;;;;;;45.30;20.08;;;;;;;7.41;86.17;96988.84;5107972;28;20725;-74
2021/10/18 05:24:53;;;;;;;44.88;20.05;;;;;;;7.49;86.19;96991.78;5112907;27;20422;-74
2021/10/18 05:27:20;;;;;;;50.72;21.08;;;;;;;7.49;85.62;96997.19;5106872;27;20060;-74
2021/10/18 05:29:46;;;;;;;55.97;21.70;;;;;;;7.51;86.00;97000.41;5108149;28;20650;-74
2021/10/18 05:32:13;;;;;;;51.78;20.92;;;;;;;7.55;85.90;97006.09;5107210;28;20047;-74
2021/10/18 05:34:39;;;;;;;36.55;18.88;;;;;;;7.54;86.21;97005.28;5109225;28;20131;-74
2021/10/18 05:37:06;;;;;;;52.65;20.83;;;;;;;7.56;86.34;97003.09;5107304;28;20059;-74
2021/10/18 05:39:34;;;;;;;43.60;20.33;;;;;;;7.58;86.45;97011.78;5108842;28;20051;-76
2021/10/18 05:42:00;;;;;;;45.30;19.50;;;;;;;7.63;86.39;97018.25;5107282;28;20051;-74
2021/10/18 05:44:27;;;;;;;44.58;20.10;;;;;;;7.66;86.31;97020.38;5107762;28;20062;-74
2021/10/18 05:46:53;;;;;;;43.45;18.80;;;;;;;7.67;86.24;97030.13;5107389;28;20051;-75
2021/10/18 05:49:19;;;;;;;43.70;18.75;;;;;;;7.69;86.39;97031.47;5106132;28;20052;-75
2021/10/18 05:51:46;;;;;;;40.97;19.00;;;;;;;7.74;86.28;97028.72;5106400;28;20039;-75
2021/10/18 05:54:13;;;;;;;47.05;19.88;;;;;;;7.79;85.96;97028.69;5110997;27;20201;-74
2021/10/18 05:56:40;;;;;;;45.70;20.50;;;;;;;7.81;85.34;97031.91;5108069;27;20044;-74
2021/10/18 05:59:07;;;;;;;39.70;19.23;;;;;;;7.80;85.75;97041.16;5107079;27;20569;-77
2021/10/18 06:01:33;;;;;;;41.95;19.27;;;;;;;7.84;85.47;97046.81;5108404;27;20577;-74
2021/10/18 06:04:03;;;;;;;43.17;19.42;;;;;;;7.87;85.34;97051.66;5107352;27;20402;-74
2021/10/18 06:06:31;;;;;;;44.60;21.08;;;;;;;7.85;85.29;97053.84;5107865;27;20505;-76
2021/10/18 06:08:58;;;;;;;36.85;19.83;;;;;;;7.81;85.06;97048.19;5107937;27;20039;-76
2021/10/18 06:11:24;;;;;;;39.28;20.02;;;;;;;7.79;85.28;97044.16;5107744;27;20048;-75
2021/10/18 06:13:52;;;;;;;59.60;20.67;;;;;;;7.83;85.04;97050.63;5107792;27;20043;-74
2021/10/18 06:16:19;;;;;;;39.60;19.50;;;;;;;7.84;85.14;97054.94;5107265;27;20063;-74
2021/10/18 06:18:45;;;;;;;38.90;19.30;;;;;;;7.90;84.71;97061.94;5108233;28;20585;-74
2021/10/18 06:21:12;;;;;;;38.10;20.02;;;;;;;7.89;84.66;97059.53;5106837;27;20115;-75
2021/10/18 06:23:38;;;;;;;44.90;20.00;;;;;;;7.88;84.73;97064.13;5112804;27;20043;-74
2021/10/18 06:26:05;;;;;;;45.83;20.83;;;;;;;7.85;84.97;97070.94;5106877;28;20048;-73
2021/10/18 06:28:31;;;;;;;35.20;19.20;;;;;;;7.92;84.96;97070.59;5107950;28;20491;-76
2021/10/18 06:30:59;;;;;;;37.90;19.45;;;;;;;7.97;84.89;97073.28;5107514;28;20048;-74
2021/10/18 06:33:26;;;;;;;41.22;20.77;;;;;;;8.00;85.06;97067.28;5107025;28;20050;-75
2021/10/18 06:35:52;;;;;;;48.17;21.95;;;;;;;8.03;85.43;97066.72;5107942;28;20054;-75
2021/10/18 06:38:21;;;;;;;44.17;21.70;;;;;;;8.10;85.03;97072.63;5106635;28;20047;-75
2021/10/18 06:40:49;;;;;;;34.75;19.65;;;;;;;8.17;83.87;97066.06;5110961;28;20054;-74
2021/10/18 06:43:17;;;;;;;39.22;20.35;;;;;;;8.19;83.71;97074.72;5110321;28;20051;-74
2021/10/18 06:45:43;;;;;;;38.25;19.38;;;;;;;8.10;83.83;97069.94;5112457;28;20216;-74
2021/10/18 06:48:13;;;;;;;35.47;19.55;;;;;;;8.07;84.26;97084.03;5111500;28;20043;-76
2021/10/18 06:50:41;;;;;;;35.35;19.10;;;;;;;8.09;84.39;97090.00;5112200;28;20050;-75
2021/10/18 06:53:12;;;;;;;40.97;20.33;;;;;;;8.17;84.42;97090.47;5112866;27;20039;-74
2021/10/18 06:55:38;;;;;;;39.38;20.50;;;;;;;8.22;84.67;97098.56;5112867;27;20039;-74
2021/10/18 06:58:06;;;;;;;38.17;19.77;;;;;;;8.25;84.07;97106.16;5110758;27;20035;-74
2021/10/18 07:00:32;;;;;;;35.97;19.67;;;;;;;8.28;84.30;97117.25;5111404;27;20051;-75
2021/10/18 07:02:59;;;;;;;39.00;19.80;;;;;;;8.29;84.22;97120.75;5111830;27;20051;-74
2021/10/18 07:05:27;;;;;;;39.78;20.50;;;;;;;8.31;84.12;97124.00;5110233;27;20497;-75
2021/10/18 07:07:53;;;;;;;34.13;18.73;;;;;;;8.33;84.37;97119.09;5111580;27;20418;-74
2021/10/18 07:10:20;;;;;;;33.45;18.33;;;;;;;8.35;84.14;97117.75;5110500;27;20074;-75
2021/10/18 07:12:46;;;;;;;31.40;18.20;;;;;;;8.36;83.67;97134.84;5111710;27;20054;-74
2021/10/18 07:15:13;;;;;;;28.95;16.85;;;;;;;8.38;84.24;97127.22;5110342;27;20047;-74
2021/10/18 07:17:39;;;;;;;30.27;17.58;;;;;;;8.45;83.65;97122.28;5110973;27;20044;-74
2021/10/18 07:20:07;;;;;;;29.42;17.38;;;;;;;8.47;83.65;97128.25;5110251;27;20046;-75
2021/10/18 07:22:42;;;;;;;26.67;16.85;;;;;;;8.54;83.54;97119.75;5110536;27;20043;-75
2021/10/18 07:25:09;;;;;;;32.00;17.73;;;;;;;8.61;82.95;97125.66;5115137;27;20044;-75
2021/10/18 07:27:36;;;;;;;32.53;18.30;;;;;;;8.63;82.22;97124.28;5110177;28;20052;-74
2021/10/18 07:30:03;;;;;;;36.53;19.02;;;;;;;8.61;82.56;97126.50;5110955;27;20051;-73
2021/10/18 07:32:30;;;;;;;46.38;21.92;;;;;;;8.60;82.75;97135.72;5110156;27;20047;-75
2021/10/18 07:34:58;;;;;;;44.28;22.33;;;;;;;8.65;83.26;97134.03;5111273;27;20498;-74
2021/10/18 07:37:27;;;;;;;39.75;21.48;;;;;;;8.62;83.10;97133.53;5110519;28;20121;-75
2021/10/18 07:39:55;;;;;;;46.97;22.35;;;;;;;8.55;82.50;97126.81;5111126;28;20154;-74
2021/10/18 07:42:22;;;;;;;44.30;22.38;;;;;;;8.60;82.08;97135.72;5109878;27;20497;-74
2021/10/18 07:44:48;;;;;;;43.58;21.88;;;;;;;8.66;81.75;97127.50;5110440;27;20490;-74
2021/10/18 07:47:14;;;;;;;41.88;21.55;;;;;;;8.67;82.05;97126.44;5110109;27;20053;-74
2021/10/18 07:49:42;;;;;;;44.00;21.60;;;;;;;8.63;82.52;97134.34;5110627;27;20047;-74
2021/10/18 07:52:12;;;;;;;49.22;20.67;;;;;;;8.58;82.70;97143.34;5109342;27;20450;-77
2021/10/18 07:54:38;;;;;;;40.15;21.33;;;;;;;8.63;82.44;97151.44;5113974;27;20043;-75
2021/10/18 07:57:06;;;;;;;41.25;22.02;;;;;;;8.67;82.86;97150.88;5110386;28;20071;-74
2021/10/18 07:59:33;;;;;;;41.00;21.25;;;;;;;8.63;82.59;97151.44;5109936;28;20075;-74
2021/10/18 08:01:59;;;;;;;43.97;22.20;;;;;;;8.65;82.57;97153.06;5110536;28;20054;-77
2021/10/18 08:04:26;;;;;;;44.33;22.95;;;;;;;8.72;81.91;97148.09;5109348;28;20054;-74
2021/10/18 08:06:52;;;;;;;37.30;20.42;;;;;;;8.74;81.74;97151.34;5109975;28;20039;-76
2021/10/18 08:09:20;;;;;;;41.35;21.30;;;;;;;8.65;81.70;97147.63;5109543;28;20047;-75
2021/10/18 08:11:46;;;;;;;40.70;21.13;;;;;;;8.60;82.10;97152.00;5109768;28;20054;-75
2021/10/18 08:14:16;;;;;;;41.53;21.70;;;;;;;8.63;82.61;97151.44;5109558;27;20406;-75
2021/10/18 08:16:43;;;;;;;39.00;20.38;;;;;;;8.67;82.95;97146.25;5109475;28;20101;-74
2021/10/18 08:19:09;;;;;;;36.92;20.65;;;;;;;8.73;83.18;97144.28;5109866;27;20051;-74
2021/10/18 08:21:36;;;;;;;41.08;21.35;;;;;;;8.76;83.07;97146.41;5109402;27;20052;-76
2021/10/18 08:24:02;;;;;;;41.67;20.35;;;;;;;8.81;82.97;97147.19;5113669;27;20624;-75
2021/10/18 08:26:29;;;;;;;34.17;20.15;;;;;;;8.81;82.63;97151.81;5109505;27;20047;-75
2021/10/18 08:28:55;;;;;;;43.58;21.63;;;;;;;8.83;82.63;97160.50;5109844;27;20050;-75
2021/10/18 08:31:23;;;;;;;38.90;20.40;;;;;;;8.87;82.71;97164.22;5109016;27;20051;-76
2021/10/18 08:33:50;;;;;;;47.03;22.48;;;;;;;8.96;82.77;97164.41;5109212;27;20043;-75
2021/10/18 08:36:17;;;;;;;36.80;21.10;;;;;;;8.96;81.80;97165.22;5109306;27;20054;-74
2021/10/18 08:38:49;;;;;;;37.35;19.88;;;;;;;8.85;82.29;97169.16;5109073;27;20050;-74
2021/10/18 08:41:23;;;;;;;45.42;20.92;;;;;;;8.93;81.93;97173.97;5109695;28;20092;-75
2021/10/18 08:46:35;;;;;;;40.08;20.80;;;;;;;8.84;82.37;97181.13;5109652;27;20135;-75
2021/10/18 08:49:01;;;;;;;39.00;20.15;;;;;;;8.84;82.83;97189.25;5108418;27;20521;-73
2021/10/18 08:51:28;;;;;;;38.10;19.73;;;;;;;8.89;82.08;97186.50;5109051;27;20043;-75
2021/10/18 08:53:55;;;;;;;43.05;20.17;;;;;;;8.91;82.26;97195.16;5113784;27;20050;-75
2021/10/18 08:56:22;;;;;;;41.80;20.95;;;;;;;8.82;81.87;97186.84;5108587;27;20051;-75
2021/10/18 08:58:49;;;;;;;40.33;21.60;;;;;;;8.83;82.27;97188.47;5109583;27;20039;-75
2021/10/18 09:01:16;;;;;;;46.63;23.38;;;;;;;8.89;82.69;97191.94;5108346;27;20040;-75
2021/10/18 09:03:44;;;;;;;45.50;22.70;;;;;;;8.96;83.25;97181.53;5109552;27;20056;-74
2021/10/18 09:06:13;;;;;;;46.05;22.63;;;;;;;8.92;83.22;97172.31;5108192;27;20040;-75
2021/10/18 09:08:41;;;;;;;45.10;22.73;;;;;;;8.95;83.03;97177.19;5109148;27;20044;-75
2021/10/18 09:11:10;;;;;;;39.70;20.58;;;;;;;9.01;82.70;97184.19;5108437;27;20054;-74
2021/10/18 09:13:42;;;;;;;39.38;21.08;;;;;;;9.08;83.31;97186.56;5108736;27;20043;-75
2021/10/18 09:16:11;;;;;;;40.72;21.50;;;;;;;9.11;82.66;97188.72;5108670;27;20039;-75
2021/10/18 09:18:37;;;;;;;39.80;20.77;;;;;;;9.01;81.82;97189.63;5108236;27;20056;-75
2021/10/18 09:21:05;;;;;;;36.63;20.42;;;;;;;9.01;82.02;97189.63;5108565;27;20051;-75
2021/10/18 09:23:36;;;;;;;41.72;22.42;;;;;;;9.00;82.21;97188.00;5112458;27;20486;-75
2021/10/18 09:26:04;;;;;;;40.08;21.25;;;;;;;9.01;81.85;97183.38;5108981;27;20152;-74
2021/10/18 09:28:31;;;;;;;43.63;22.50;;;;;;;8.99;81.98;97186.41;5108442;28;20047;-76
2021/10/18 09:30:58;;;;;;;37.22;20.88;;;;;;;9.01;82.86;97183.38;5108785;27;20051;-77
2021/10/18 09:33:30;;;;;;;39.13;21.75;;;;;;;9.07;82.89;97185.75;5107570;27;20406;-75
2021/10/18 09:35:57;;;;;;;44.42;22.77;;;;;;;9.15;83.12;97187.06;5108506;27;20040;-74
2021/10/18 09:38:25;;;;;;;39.60;22.63;;;;;;;9.24;83.65;97181.78;5108145;27;20528;-76
2021/10/18 09:40:55;;;;;;;40.67;21.38;;;;;;;9.22;82.36;97187.50;5107436;27;20047;-75
2021/10/18 09:43:35;;;;;;;39.70;20.52;;;;;;;9.13;81.96;97186.50;5107944;27;20076;-74
2021/10/18 09:46:14;;;;;;;38.58;20.75;;;;;;;9.17;82.74;97189.47;5106995;27;20048;-71
2021/10/18 10:51:28;;;;;;;38.75;21.45;;;;;;;9.85;82.03;97170.16;5111125;28;20050;-76
2021/10/18 10:53:58;;;;;;;35.10;20.75;;;;;;;9.88;82.35;97175.00;5115566;27;20040;-77
2021/10/18 10:56:38;;;;;;;37.33;20.10;;;;;;;9.92;81.96;97159.72;5110382;27;20051;-73
2021/10/18 10:59:18;;;;;;;38.33;21.67;;;;;;;9.98;81.74;97163.19;5111272;27;20526;-77
2021/10/18 11:01:51;;;;;;;33.83;20.17;;;;;;;10.03;81.22;97158.47;5110903;27;20040;-74
2021/10/18 11:04:36;;;;;;;;;;;;;;;10.10;81.66;97155.38;5111667;27;20048;-74
2021/10/18 11:07:05;;;;;;;35.15;20.05;;;;;;;10.11;81.88;97152.34;5110882;27;20357;-76
2021/10/18 11:09:42;;;;;;;36.97;21.42;;;;;;;10.10;80.95;97161.63;5110954;27;20047;-77
2021/10/18 11:12:20;;;;;;;33.30;19.90;;;;;;;10.16;81.34;97162.34;5111167;28;20040;-76
2021/10/18 11:14:52;;;;;;;39.67;21.80;;;;;;;10.17;80.28;97155.81;5110628;27;20048;-76
2021/10/18 11:17:19;;;;;;;35.25;20.52;;;;;;;10.18;80.58;97155.53;5110888;27;20140;-74
2021/10/18 11:19:52;;;;;;;38.90;21.70;;;;;;;10.28;80.18;97148.31;5110670;27;20418;-74
2021/10/18 11:22:26;;;;;;;38.17;22.33;;;;;;;10.33;80.24;97145.50;5110324;27;20051;-75
2021/10/18 11:24:52;;;;;;;33.70;20.73;;;;;;;10.33;79.69;97142.78;5115536;27;20045;-74
2021/10/18 11:27:25;;;;;;;36.67;21.20;;;;;;;10.27;79.57;97139.34;5110048;27;20785;-75
2021/10/18 11:29:56;;;;;;;42.22;22.83;;;;;;;10.27;79.79;97135.81;5111425;27;20047;-75
2021/10/18 11:32:24;;;;;;;38.58;22.67;;;;;;;10.25;80.43;97135.31;5109322;28;20069;-75
2021/10/18 11:34:50;;;;;;;36.78;21.05;;;;;;;10.32;79.64;97138.47;5111212;28;20047;-75
2021/10/18 11:37:17;;;;;;;34.80;20.05;;;;;;;10.34;79.85;97136.25;5109364;28;20043;-74
2021/10/18 11:39:43;;;;;;;38.50;22.40;;;;;;;10.35;79.53;97125.06;5111187;28;20422;-74
2021/10/18 11:42:13;;;;;;;36.35;21.27;;;;;;;10.41;79.40;97136.69;5110048;27;20039;-74
2021/10/18 11:44:53;;;;;;;36.65;21.77;;;;;;;10.44;79.70;97130.66;5110158;28;20077;-74
2021/10/18 11:47:34;;;;;;;37.58;22.27;;;;;;;10.44;79.73;97138.81;5110139;27;20051;-74
2021/10/18 11:50:22;;;;;;;38.67;23.02;;;;;;;10.43;79.91;97142.63;5109919;27;20043;-74
2021/10/18 11:52:53;;;;;;;38.72;23.00;;;;;;;10.46;79.73;97136.59;5110654;28;20036;-75
2021/10/18 11:55:24;;;;;;;37.42;20.95;;;;;;;10.47;80.25;97131.97;5104833;27;20054;-76
2021/10/18 11:57:52;;;;;;;37.33;21.38;;;;;;;10.51;79.34;97132.97;5110672;27;20046;-74
2021/10/18 12:00:23;;;;;;;33.80;20.90;;;;;;;10.51;79.53;97128.34;5109704;27;20035;-76
2021/10/18 12:02:50;;;;;;;38.15;21.38;;;;;;;10.51;79.51;97127.53;5109984;27;20039;-74
2021/10/18 12:05:17;;;;;;;39.20;21.75;;;;;;;10.50;79.64;97124.00;5109751;27;20043;-74
2021/10/18 12:07:47;;;;;;;37.78;22.23;;;;;;;10.47;79.92;97116.41;5109870;27;20044;-74
2021/10/18 12:10:23;;;;;;;37.90;23.60;;;;;;;10.44;79.94;97123.28;5109936;27;20051;-74
2021/10/18 12:13:09;;;;;;;37.22;22.55;;;;;;;10.46;80.12;97133.88;5109592;27;20452;-75
2021/10/18 12:15:43;;;;;;;38.45;22.33;;;;;;;10.41;79.65;97128.50;5109855;27;20055;-74
2021/10/18 12:18:11;;;;;;;37.55;22.85;;;;;;;10.42;79.69;97124.69;5109558;27;20076;-74
2021/10/18 12:20:41;;;;;;;39.88;22.85;;;;;;;10.45;79.98;97124.09;5109850;28;20040;-73
2021/10/18 12:23:10;;;;;;;43.78;23.10;;;;;;;10.52;80.18;97126.44;5112350;27;20040;-74
2021/10/18 12:25:38;;;;;;;39.58;22.85;;;;;;;10.59;79.85;97119.47;5110905;27;20043;-74
2021/10/18 12:28:40;;;;;;;41.08;23.42;;;;;;;10.68;79.70;97123.13;5110026;27;20120;-75
2021/10/18 12:31:27;;;;;;;39.58;22.35;;;;;;;10.69;79.20;97123.94;5101536;27;20050;-74
2021/10/18 12:34:12;;;;;;;41.88;24.67;;;;;;;10.68;79.39;97125.84;5108299;28;20039;-74